sensor_id;sensor_type;location;lat;lon;timestamp;temperature;humidity
31369;DHT22;18004;48.416;10.066;2022-12-10T00:01:19;0.60;99.90
31369;DHT22;18004;48.416;10.066;2022-12-10T00:03:46;0.70;99.90
31369;DHT22;18004;48.416;10.066;2022-12-10T00:06:14;0.80;99.90
31369;DHT22;18004;48.416;10.066;2022-12-10T00:08:40;0.80;99.90
31369;DHT22;18004;48.416;10.066;2022-12-10T00:11:09;0.80;99.90
31369;DHT22;18004;48.416;10.066;2022-12-10T00:13:35;0.80;99.90
31369;DHT22;18004;48.416;10.066;2022-12-10T00:16:07;0.70;99.90
31369;DHT22;18004;48.416;10.066;2022-12-10T00:18:33;0.80;99.90
31369;DHT22;18004;48.416;10.066;2022-12-10T00:21:03;0.90;99.90
31369;DHT22;18004;48.416;10.066;2022-12-10T00:23:29;0.90;99.90
31369;DHT22;18004;48.416;10.066;2022-12-10T00:26:05;0.90;99.90
31369;DHT22;18004;48.416;10.066;2022-12-10T00:28:31;0.90;99.90
31369;DHT22;18004;48.416;10.066;2022-12-10T00:31:11;0.80;99.90
31369;DHT22;18004;48.416;10.066;2022-12-10T00:33:37;0.90;99.90
31369;DHT22;18004;48.416;10.066;2022-12-10T00:36:09;0.90;99.90
31369;DHT22;18004;48.416;10.066;2022-12-10T00:38:36;0.90;99.90
31369;DHT22;18004;48.416;10.066;2022-12-10T00:41:03;0.90;99.90
31369;DHT22;18004;48.416;10.066;2022-12-10T00:43:29;0.80;99.90
31369;DHT22;18004;48.416;10.066;2022-12-10T00:45:54;0.80;99.90
31369;DHT22;18004;48.416;10.066;2022-12-10T00:48:21;0.80;99.90
31369;DHT22;18004;48.416;10.066;2022-12-10T00:51:05;0.70;99.90
31369;DHT22;18004;48.416;10.066;2022-12-10T00:53:33;0.80;99.90
31369;DHT22;18004;48.416;10.066;2022-12-10T00:55:59;0.80;99.90
31369;DHT22;18004;48.416;10.066;2022-12-10T00:58:30;0.80;99.90
31369;DHT22;18004;48.416;10.066;2022-12-10T01:03:44;0.80;99.90
31369;DHT22;18004;48.416;10.066;2022-12-10T01:06:14;0.90;99.90
31369;DHT22;18004;48.416;10.066;2022-12-10T01:08:41;0.90;99.90
31369;DHT22;18004;48.416;10.066;2022-12-10T01:11:08;0.90;99.90
31369;DHT22;18004;48.416;10.066;2022-12-10T01:13:34;0.90;99.90
31369;DHT22;18004;48.416;10.066;2022-12-10T01:16:01;0.90;99.90
31369;DHT22;18004;48.416;10.066;2022-12-10T01:18:27;0.90;99.90
31369;DHT22;18004;48.416;10.066;2022-12-10T01:20:53;0.90;99.90
31369;DHT22;18004;48.416;10.066;2022-12-10T01:23:19;0.90;99.90
31369;DHT22;18004;48.416;10.066;2022-12-10T01:25:44;0.90;99.90
31369;DHT22;18004;48.416;10.066;2022-12-10T01:28:11;1.00;99.90
31369;DHT22;18004;48.416;10.066;2022-12-10T01:30:37;1.00;99.90
31369;DHT22;18004;48.416;10.066;2022-12-10T01:33:03;1.00;99.90
31369;DHT22;18004;48.416;10.066;2022-12-10T01:35:28;0.80;99.90
31369;DHT22;18004;48.416;10.066;2022-12-10T01:37:54;0.80;99.90
31369;DHT22;18004;48.416;10.066;2022-12-10T01:40:20;0.70;99.90
31369;DHT22;18004;48.416;10.066;2022-12-10T01:42:46;0.70;99.90
31369;DHT22;18004;48.416;10.066;2022-12-10T01:45:12;0.70;99.90
31369;DHT22;18004;48.416;10.066;2022-12-10T01:47:38;0.60;99.90
31369;DHT22;18004;48.416;10.066;2022-12-10T01:50:06;0.60;99.90
31369;DHT22;18004;48.416;10.066;2022-12-10T01:52:32;0.70;99.90
31369;DHT22;18004;48.416;10.066;2022-12-10T01:54:58;0.70;99.90
31369;DHT22;18004;48.416;10.066;2022-12-10T01:57:26;0.60;99.90
31369;DHT22;18004;48.416;10.066;2022-12-10T01:59:58;0.50;99.90
31369;DHT22;18004;48.416;10.066;2022-12-10T02:02:42;0.50;99.90
31369;DHT22;18004;48.416;10.066;2022-12-10T02:05:26;0.50;99.90
31369;DHT22;18004;48.416;10.066;2022-12-10T02:16:16;0.50;99.90
31369;DHT22;18004;48.416;10.066;2022-12-10T02:18:49;0.40;99.90
31369;DHT22;18004;48.416;10.066;2022-12-10T02:21:26;0.40;99.90
31369;DHT22;18004;48.416;10.066;2022-12-10T02:24:03;0.40;99.90
31369;DHT22;18004;48.416;10.066;2022-12-10T02:29:24;0.30;99.90
31369;DHT22;18004;48.416;10.066;2022-12-10T02:32:06;0.30;99.90
31369;DHT22;18004;48.416;10.066;2022-12-10T02:34:42;0.30;99.90
31369;DHT22;18004;48.416;10.066;2022-12-10T02:37:14;0.30;99.90
31369;DHT22;18004;48.416;10.066;2022-12-10T02:39:45;0.20;99.90
31369;DHT22;18004;48.416;10.066;2022-12-10T02:42:15;0.30;99.90
31369;DHT22;18004;48.416;10.066;2022-12-10T02:44:43;0.30;99.90
31369;DHT22;18004;48.416;10.066;2022-12-10T02:47:10;0.30;99.90
31369;DHT22;18004;48.416;10.066;2022-12-10T02:49:39;0.30;99.90
31369;DHT22;18004;48.416;10.066;2022-12-10T02:52:10;0.30;99.90
31369;DHT22;18004;48.416;10.066;2022-12-10T02:54:43;0.30;99.90
31369;DHT22;18004;48.416;10.066;2022-12-10T03:16:11;0.20;99.90
31369;DHT22;18004;48.416;10.066;2022-12-10T03:18:38;0.20;99.90
31369;DHT22;18004;48.416;10.066;2022-12-10T03:21:06;0.20;99.90
31369;DHT22;18004;48.416;10.066;2022-12-10T03:23:35;0.10;99.90
31369;DHT22;18004;48.416;10.066;2022-12-10T03:26:02;0.10;99.90
31369;DHT22;18004;48.416;10.066;2022-12-10T03:28:32;0.10;99.90
31369;DHT22;18004;48.416;10.066;2022-12-10T03:31:00;0.10;99.90
31369;DHT22;18004;48.416;10.066;2022-12-10T03:33:27;0.10;99.90
31369;DHT22;18004;48.416;10.066;2022-12-10T03:35:53;0.10;99.90
31369;DHT22;18004;48.416;10.066;2022-12-10T03:38:19;0.10;99.90
31369;DHT22;18004;48.416;10.066;2022-12-10T03:40:45;0.10;99.90
31369;DHT22;18004;48.416;10.066;2022-12-10T03:43:13;0.10;99.90
31369;DHT22;18004;48.416;10.066;2022-12-10T03:45:40;0.20;99.90
31369;DHT22;18004;48.416;10.066;2022-12-10T03:48:05;0.20;99.90
31369;DHT22;18004;48.416;10.066;2022-12-10T03:50:31;0.20;99.90
31369;DHT22;18004;48.416;10.066;2022-12-10T03:52:57;0.20;99.90
31369;DHT22;18004;48.416;10.066;2022-12-10T03:55:23;0.20;99.90
31369;DHT22;18004;48.416;10.066;2022-12-10T03:57:48;0.20;99.90
31369;DHT22;18004;48.416;10.066;2022-12-10T04:00:14;0.20;99.90
31369;DHT22;18004;48.416;10.066;2022-12-10T04:02:40;0.20;99.90
31369;DHT22;18004;48.416;10.066;2022-12-10T04:05:07;0.20;99.90
31369;DHT22;18004;48.416;10.066;2022-12-10T04:07:34;0.20;99.90
31369;DHT22;18004;48.416;10.066;2022-12-10T04:09:59;0.30;99.90
31369;DHT22;18004;48.416;10.066;2022-12-10T04:12:25;0.30;99.90
31369;DHT22;18004;48.416;10.066;2022-12-10T04:14:53;0.30;99.90
31369;DHT22;18004;48.416;10.066;2022-12-10T04:17:38;0.30;99.90
31369;DHT22;18004;48.416;10.066;2022-12-10T04:20:04;0.20;99.90
31369;DHT22;18004;48.416;10.066;2022-12-10T04:22:30;0.30;99.90
31369;DHT22;18004;48.416;10.066;2022-12-10T04:25:15;0.30;99.90
31369;DHT22;18004;48.416;10.066;2022-12-10T04:27:59;0.30;99.90
31369;DHT22;18004;48.416;10.066;2022-12-10T04:30:25;0.20;99.90
31369;DHT22;18004;48.416;10.066;2022-12-10T04:32:51;0.20;99.90
31369;DHT22;18004;48.416;10.066;2022-12-10T04:35:17;0.30;99.90
31369;DHT22;18004;48.416;10.066;2022-12-10T04:37:42;0.20;99.90
31369;DHT22;18004;48.416;10.066;2022-12-10T04:40:09;0.20;99.90
31369;DHT22;18004;48.416;10.066;2022-12-10T04:42:35;0.10;99.90
31369;DHT22;18004;48.416;10.066;2022-12-10T04:45:00;0.20;99.90
31369;DHT22;18004;48.416;10.066;2022-12-10T04:47:26;0.20;99.90
31369;DHT22;18004;48.416;10.066;2022-12-10T04:49:52;0.30;99.90
31369;DHT22;18004;48.416;10.066;2022-12-10T04:52:18;0.30;99.90
31369;DHT22;18004;48.416;10.066;2022-12-10T04:54:44;0.20;99.90
31369;DHT22;18004;48.416;10.066;2022-12-10T04:57:10;0.10;99.90
31369;DHT22;18004;48.416;10.066;2022-12-10T04:59:36;0.20;99.90
31369;DHT22;18004;48.416;10.066;2022-12-10T05:02:03;0.10;99.90
31369;DHT22;18004;48.416;10.066;2022-12-10T05:04:29;0.20;99.90
31369;DHT22;18004;48.416;10.066;2022-12-10T05:06:54;0.30;99.90
31369;DHT22;18004;48.416;10.066;2022-12-10T05:09:20;0.30;99.90
31369;DHT22;18004;48.416;10.066;2022-12-10T05:11:46;0.30;99.90
31369;DHT22;18004;48.416;10.066;2022-12-10T05:14:12;0.40;99.90
31369;DHT22;18004;48.416;10.066;2022-12-10T05:16:38;0.30;99.90
31369;DHT22;18004;48.416;10.066;2022-12-10T05:19:04;0.20;99.90
31369;DHT22;18004;48.416;10.066;2022-12-10T05:21:30;0.30;99.90
31369;DHT22;18004;48.416;10.066;2022-12-10T05:24:16;0.30;99.90
31369;DHT22;18004;48.416;10.066;2022-12-10T05:26:41;0.30;99.90
31369;DHT22;18004;48.416;10.066;2022-12-10T05:29:11;0.20;99.90
31369;DHT22;18004;48.416;10.066;2022-12-10T05:31:37;0.20;99.90
31369;DHT22;18004;48.416;10.066;2022-12-10T05:34:03;0.20;99.90
31369;DHT22;18004;48.416;10.066;2022-12-10T05:36:30;0.20;99.90
31369;DHT22;18004;48.416;10.066;2022-12-10T05:38:57;0.20;99.90
31369;DHT22;18004;48.416;10.066;2022-12-10T05:41:29;0.20;99.90
31369;DHT22;18004;48.416;10.066;2022-12-10T05:43:55;0.30;99.90
31369;DHT22;18004;48.416;10.066;2022-12-10T05:46:23;0.30;99.90
31369;DHT22;18004;48.416;10.066;2022-12-10T05:48:50;0.30;99.90
31369;DHT22;18004;48.416;10.066;2022-12-10T05:51:18;0.30;99.90
31369;DHT22;18004;48.416;10.066;2022-12-10T05:53:44;0.30;99.90
31369;DHT22;18004;48.416;10.066;2022-12-10T05:56:12;0.30;99.90
31369;DHT22;18004;48.416;10.066;2022-12-10T05:58:40;0.30;99.90
31369;DHT22;18004;48.416;10.066;2022-12-10T06:01:14;0.20;99.90
31369;DHT22;18004;48.416;10.066;2022-12-10T06:03:41;0.20;99.90
31369;DHT22;18004;48.416;10.066;2022-12-10T06:06:07;0.20;99.90
31369;DHT22;18004;48.416;10.066;2022-12-10T06:08:34;0.30;99.90
31369;DHT22;18004;48.416;10.066;2022-12-10T06:11:08;0.30;99.90
31369;DHT22;18004;48.416;10.066;2022-12-10T06:13:34;0.20;99.90
31369;DHT22;18004;48.416;10.066;2022-12-10T06:16:05;0.30;99.90
31369;DHT22;18004;48.416;10.066;2022-12-10T06:18:31;0.30;99.90
31369;DHT22;18004;48.416;10.066;2022-12-10T06:20:56;0.30;99.90
31369;DHT22;18004;48.416;10.066;2022-12-10T06:23:22;0.30;99.90
31369;DHT22;18004;48.416;10.066;2022-12-10T06:25:48;0.20;99.90
31369;DHT22;18004;48.416;10.066;2022-12-10T06:28:14;0.30;99.90
31369;DHT22;18004;48.416;10.066;2022-12-10T06:30:40;0.20;99.90
31369;DHT22;18004;48.416;10.066;2022-12-10T06:33:06;0.30;99.90
31369;DHT22;18004;48.416;10.066;2022-12-10T06:35:31;0.30;99.90
31369;DHT22;18004;48.416;10.066;2022-12-10T06:37:57;0.30;99.90
31369;DHT22;18004;48.416;10.066;2022-12-10T06:40:23;0.40;99.90
31369;DHT22;18004;48.416;10.066;2022-12-10T06:42:51;0.40;99.90
31369;DHT22;18004;48.416;10.066;2022-12-10T06:45:17;0.40;99.90
31369;DHT22;18004;48.416;10.066;2022-12-10T06:47:42;0.40;99.90
31369;DHT22;18004;48.416;10.066;2022-12-10T06:50:09;0.40;99.90
31369;DHT22;18004;48.416;10.066;2022-12-10T06:52:34;0.40;99.90
31369;DHT22;18004;48.416;10.066;2022-12-10T06:55:00;0.50;99.90
31369;DHT22;18004;48.416;10.066;2022-12-10T06:57:26;0.40;99.90
31369;DHT22;18004;48.416;10.066;2022-12-10T06:59:52;0.40;99.90
31369;DHT22;18004;48.416;10.066;2022-12-10T07:02:17;0.50;99.90
31369;DHT22;18004;48.416;10.066;2022-12-10T07:04:43;0.50;99.90
31369;DHT22;18004;48.416;10.066;2022-12-10T07:07:09;0.50;99.90
31369;DHT22;18004;48.416;10.066;2022-12-10T07:09:35;0.50;99.90
31369;DHT22;18004;48.416;10.066;2022-12-10T07:12:00;0.40;99.90
31369;DHT22;18004;48.416;10.066;2022-12-10T07:14:26;0.40;99.90
31369;DHT22;18004;48.416;10.066;2022-12-10T07:16:52;0.30;99.90
31369;DHT22;18004;48.416;10.066;2022-12-10T07:19:18;0.20;99.90
31369;DHT22;18004;48.416;10.066;2022-12-10T07:21:43;0.30;99.90
31369;DHT22;18004;48.416;10.066;2022-12-10T07:24:17;0.20;99.90
31369;DHT22;18004;48.416;10.066;2022-12-10T07:26:44;0.30;99.90
31369;DHT22;18004;48.416;10.066;2022-12-10T07:29:19;0.30;99.90
31369;DHT22;18004;48.416;10.066;2022-12-10T07:31:45;0.30;99.90
31369;DHT22;18004;48.416;10.066;2022-12-10T07:34:14;0.30;99.90
31369;DHT22;18004;48.416;10.066;2022-12-10T07:36:41;0.30;99.90
31369;DHT22;18004;48.416;10.066;2022-12-10T07:39:09;0.30;99.90
31369;DHT22;18004;48.416;10.066;2022-12-10T07:41:43;0.30;99.90
31369;DHT22;18004;48.416;10.066;2022-12-10T07:44:11;0.30;99.90
31369;DHT22;18004;48.416;10.066;2022-12-10T07:46:38;0.40;99.90
31369;DHT22;18004;48.416;10.066;2022-12-10T07:49:04;0.40;99.90
31369;DHT22;18004;48.416;10.066;2022-12-10T07:51:30;0.40;99.90
31369;DHT22;18004;48.416;10.066;2022-12-10T07:53:56;0.40;99.90
31369;DHT22;18004;48.416;10.066;2022-12-10T07:56:23;0.40;99.90
31369;DHT22;18004;48.416;10.066;2022-12-10T07:58:50;0.40;99.90
31369;DHT22;18004;48.416;10.066;2022-12-10T08:01:22;0.40;99.90
31369;DHT22;18004;48.416;10.066;2022-12-10T08:03:49;0.40;99.90
31369;DHT22;18004;48.416;10.066;2022-12-10T08:06:17;0.50;99.90
31369;DHT22;18004;48.416;10.066;2022-12-10T08:08:44;0.40;99.90
31369;DHT22;18004;48.416;10.066;2022-12-10T08:11:11;0.30;99.90
31369;DHT22;18004;48.416;10.066;2022-12-10T08:13:37;0.40;99.90
31369;DHT22;18004;48.416;10.066;2022-12-10T08:16:05;0.40;99.90
31369;DHT22;18004;48.416;10.066;2022-12-10T08:18:33;0.50;99.90
31369;DHT22;18004;48.416;10.066;2022-12-10T08:21:10;0.50;99.90
31369;DHT22;18004;48.416;10.066;2022-12-10T08:23:37;0.50;99.90
31369;DHT22;18004;48.416;10.066;2022-12-10T08:26:07;0.40;99.90
31369;DHT22;18004;48.416;10.066;2022-12-10T08:28:33;0.50;99.90
31369;DHT22;18004;48.416;10.066;2022-12-10T08:30:59;0.50;99.90
31369;DHT22;18004;48.416;10.066;2022-12-10T08:33:25;0.50;99.90
31369;DHT22;18004;48.416;10.066;2022-12-10T08:35:51;0.50;99.90
31369;DHT22;18004;48.416;10.066;2022-12-10T08:38:17;0.50;99.90
31369;DHT22;18004;48.416;10.066;2022-12-10T08:40:43;0.60;99.90
31369;DHT22;18004;48.416;10.066;2022-12-10T08:43:08;0.60;99.90
31369;DHT22;18004;48.416;10.066;2022-12-10T08:45:34;0.60;99.90
31369;DHT22;18004;48.416;10.066;2022-12-10T08:48:03;0.60;99.90
31369;DHT22;18004;48.416;10.066;2022-12-10T08:50:29;0.60;99.90
31369;DHT22;18004;48.416;10.066;2022-12-10T08:52:54;0.60;99.90
31369;DHT22;18004;48.416;10.066;2022-12-10T08:55:20;0.70;99.90
31369;DHT22;18004;48.416;10.066;2022-12-10T08:57:46;0.70;99.90
31369;DHT22;18004;48.416;10.066;2022-12-10T09:00:12;0.70;99.90
31369;DHT22;18004;48.416;10.066;2022-12-10T09:02:39;0.70;99.90
31369;DHT22;18004;48.416;10.066;2022-12-10T09:05:05;0.70;99.90
31369;DHT22;18004;48.416;10.066;2022-12-10T09:07:31;0.70;99.90
31369;DHT22;18004;48.416;10.066;2022-12-10T09:09:57;0.60;99.90
31369;DHT22;18004;48.416;10.066;2022-12-10T09:12:23;0.70;99.90
31369;DHT22;18004;48.416;10.066;2022-12-10T09:14:49;0.70;99.90
31369;DHT22;18004;48.416;10.066;2022-12-10T09:17:15;0.80;99.90
31369;DHT22;18004;48.416;10.066;2022-12-10T09:19:40;0.80;99.90
31369;DHT22;18004;48.416;10.066;2022-12-10T09:22:06;0.80;99.90
31369;DHT22;18004;48.416;10.066;2022-12-10T09:24:32;0.80;99.90
31369;DHT22;18004;48.416;10.066;2022-12-10T09:26:58;0.80;99.90
31369;DHT22;18004;48.416;10.066;2022-12-10T09:29:24;0.80;99.90
31369;DHT22;18004;48.416;10.066;2022-12-10T09:31:53;0.80;99.90
31369;DHT22;18004;48.416;10.066;2022-12-10T09:34:20;0.80;99.90
31369;DHT22;18004;48.416;10.066;2022-12-10T09:36:47;0.90;99.90
31369;DHT22;18004;48.416;10.066;2022-12-10T09:39:15;0.90;99.90
31369;DHT22;18004;48.416;10.066;2022-12-10T09:41:56;0.90;99.90
31369;DHT22;18004;48.416;10.066;2022-12-10T09:47:09;0.90;99.90
31369;DHT22;18004;48.416;10.066;2022-12-10T09:50:09;0.90;99.90
31369;DHT22;18004;48.416;10.066;2022-12-10T09:52:41;0.90;99.90
31369;DHT22;18004;48.416;10.066;2022-12-10T09:55:16;0.90;99.90
31369;DHT22;18004;48.416;10.066;2022-12-10T09:57:46;0.90;99.90
31369;DHT22;18004;48.416;10.066;2022-12-10T10:00:34;0.90;99.90
31369;DHT22;18004;48.416;10.066;2022-12-10T10:03:01;0.90;99.90
31369;DHT22;18004;48.416;10.066;2022-12-10T10:05:30;1.00;99.90
31369;DHT22;18004;48.416;10.066;2022-12-10T10:08:02;1.10;99.90
31369;DHT22;18004;48.416;10.066;2022-12-10T10:10:37;1.00;99.90
31369;DHT22;18004;48.416;10.066;2022-12-10T10:15:39;1.10;99.90
31369;DHT22;18004;48.416;10.066;2022-12-10T10:20:57;1.10;99.90
31369;DHT22;18004;48.416;10.066;2022-12-10T10:23:24;1.10;99.90
31369;DHT22;18004;48.416;10.066;2022-12-10T10:25:49;1.10;99.90
31369;DHT22;18004;48.416;10.066;2022-12-10T10:28:21;1.20;99.90
31369;DHT22;18004;48.416;10.066;2022-12-10T10:30:47;1.10;99.90
31369;DHT22;18004;48.416;10.066;2022-12-10T10:33:16;1.10;99.90
31369;DHT22;18004;48.416;10.066;2022-12-10T10:35:53;1.00;99.90
31369;DHT22;18004;48.416;10.066;2022-12-10T10:38:22;1.00;99.90
31369;DHT22;18004;48.416;10.066;2022-12-10T10:41:03;1.00;99.90
31369;DHT22;18004;48.416;10.066;2022-12-10T10:43:43;1.10;99.90
31369;DHT22;18004;48.416;10.066;2022-12-10T10:46:15;1.00;99.90
31369;DHT22;18004;48.416;10.066;2022-12-10T10:48:42;1.00;99.90
31369;DHT22;18004;48.416;10.066;2022-12-10T10:51:24;1.00;99.90
31369;DHT22;18004;48.416;10.066;2022-12-10T10:53:56;1.00;99.90
31369;DHT22;18004;48.416;10.066;2022-12-10T10:56:27;1.10;99.90
31369;DHT22;18004;48.416;10.066;2022-12-10T11:01:55;1.10;99.90
31369;DHT22;18004;48.416;10.066;2022-12-10T11:04:36;1.10;99.90
31369;DHT22;18004;48.416;10.066;2022-12-10T11:07:05;1.10;99.90
31369;DHT22;18004;48.416;10.066;2022-12-10T11:09:35;1.00;99.90
31369;DHT22;18004;48.416;10.066;2022-12-10T11:12:07;1.10;99.90
31369;DHT22;18004;48.416;10.066;2022-12-10T11:14:45;1.10;99.90
31369;DHT22;18004;48.416;10.066;2022-12-10T11:20:01;1.10;99.90
31369;DHT22;18004;48.416;10.066;2022-12-10T11:22:31;1.00;99.90
31369;DHT22;18004;48.416;10.066;2022-12-10T11:24:58;1.00;99.90
31369;DHT22;18004;48.416;10.066;2022-12-10T11:27:49;1.00;99.90
31369;DHT22;18004;48.416;10.066;2022-12-10T11:30:20;1.00;99.90
31369;DHT22;18004;48.416;10.066;2022-12-10T11:38:57;1.00;99.90
31369;DHT22;18004;48.416;10.066;2022-12-10T11:49:07;1.20;99.90
31369;DHT22;18004;48.416;10.066;2022-12-10T11:52:00;1.20;99.90
31369;DHT22;18004;48.416;10.066;2022-12-10T12:05:26;1.10;99.90
31369;DHT22;18004;48.416;10.066;2022-12-10T12:10:54;0.90;99.90
31369;DHT22;18004;48.416;10.066;2022-12-10T12:13:25;0.90;99.90
31369;DHT22;18004;48.416;10.066;2022-12-10T12:15:57;0.90;99.90
31369;DHT22;18004;48.416;10.066;2022-12-10T12:21:14;0.70;99.90
31369;DHT22;18004;48.416;10.066;2022-12-10T12:29:12;0.60;99.90
31369;DHT22;18004;48.416;10.066;2022-12-10T12:31:41;0.60;99.90
31369;DHT22;18004;48.416;10.066;2022-12-10T12:34:24;0.60;99.90
31369;DHT22;18004;48.416;10.066;2022-12-10T12:36:51;0.60;99.90
31369;DHT22;18004;48.416;10.066;2022-12-10T12:39:34;0.60;99.90
31369;DHT22;18004;48.416;10.066;2022-12-10T12:45:10;0.60;99.90
31369;DHT22;18004;48.416;10.066;2022-12-10T12:50:44;0.50;99.90
31369;DHT22;18004;48.416;10.066;2022-12-10T12:53:12;0.50;99.90
31369;DHT22;18004;48.416;10.066;2022-12-10T12:55:44;0.60;99.90
31369;DHT22;18004;48.416;10.066;2022-12-10T13:01:03;0.70;99.90
31369;DHT22;18004;48.416;10.066;2022-12-10T13:03:43;0.80;99.90
31369;DHT22;18004;48.416;10.066;2022-12-10T13:08:49;0.80;99.90
31369;DHT22;18004;48.416;10.066;2022-12-10T13:11:28;0.80;99.90
31369;DHT22;18004;48.416;10.066;2022-12-10T13:27:17;0.80;99.90
31369;DHT22;18004;48.416;10.066;2022-12-10T13:29:56;0.70;99.90
31369;DHT22;18004;48.416;10.066;2022-12-10T13:40:38;0.50;99.90
31369;DHT22;18004;48.416;10.066;2022-12-10T13:46:33;0.50;99.90
31369;DHT22;18004;48.416;10.066;2022-12-10T13:49:02;0.50;99.90
31369;DHT22;18004;48.416;10.066;2022-12-10T13:51:49;0.50;99.90
31369;DHT22;18004;48.416;10.066;2022-12-10T14:00:19;0.30;99.90
31369;DHT22;18004;48.416;10.066;2022-12-10T14:08:33;0.40;99.90
31369;DHT22;18004;48.416;10.066;2022-12-10T14:11:02;0.50;99.90
31369;DHT22;18004;48.416;10.066;2022-12-10T14:13:40;0.50;99.90
31369;DHT22;18004;48.416;10.066;2022-12-10T14:16:14;0.60;99.90
31369;DHT22;18004;48.416;10.066;2022-12-10T14:18:46;0.60;99.90
31369;DHT22;18004;48.416;10.066;2022-12-10T14:21:14;0.70;99.90
31369;DHT22;18004;48.416;10.066;2022-12-10T14:23:46;0.80;99.90
31369;DHT22;18004;48.416;10.066;2022-12-10T14:26:35;0.90;99.90
31369;DHT22;18004;48.416;10.066;2022-12-10T14:29:21;0.80;99.90
31369;DHT22;18004;48.416;10.066;2022-12-10T14:31:48;0.80;99.90
31369;DHT22;18004;48.416;10.066;2022-12-10T14:34:18;0.80;99.90
31369;DHT22;18004;48.416;10.066;2022-12-10T14:36:49;0.70;99.90
31369;DHT22;18004;48.416;10.066;2022-12-10T14:39:18;0.80;99.90
31369;DHT22;18004;48.416;10.066;2022-12-10T14:41:44;0.80;99.90
31369;DHT22;18004;48.416;10.066;2022-12-10T14:44:17;0.70;99.90
31369;DHT22;18004;48.416;10.066;2022-12-10T14:46:47;0.70;99.90
31369;DHT22;18004;48.416;10.066;2022-12-10T14:49:25;0.70;99.90
31369;DHT22;18004;48.416;10.066;2022-12-10T14:51:51;0.70;99.90
31369;DHT22;18004;48.416;10.066;2022-12-10T14:54:32;0.70;99.90
31369;DHT22;18004;48.416;10.066;2022-12-10T14:57:02;0.70;99.90
31369;DHT22;18004;48.416;10.066;2022-12-10T14:59:39;0.70;99.90
31369;DHT22;18004;48.416;10.066;2022-12-10T15:04:46;0.80;99.90
31369;DHT22;18004;48.416;10.066;2022-12-10T15:07:24;0.90;99.90
31369;DHT22;18004;48.416;10.066;2022-12-10T15:09:52;0.90;99.90
31369;DHT22;18004;48.416;10.066;2022-12-10T15:14:58;0.90;99.90
31369;DHT22;18004;48.416;10.066;2022-12-10T15:17:37;0.90;99.90
31369;DHT22;18004;48.416;10.066;2022-12-10T15:20:19;1.00;99.90
31369;DHT22;18004;48.416;10.066;2022-12-10T15:22:46;1.00;99.90
31369;DHT22;18004;48.416;10.066;2022-12-10T15:25:24;1.00;99.90
31369;DHT22;18004;48.416;10.066;2022-12-10T15:28:22;1.00;99.90
31369;DHT22;18004;48.416;10.066;2022-12-10T15:30:49;0.90;99.90
31369;DHT22;18004;48.416;10.066;2022-12-10T15:33:28;1.00;99.90
31369;DHT22;18004;48.416;10.066;2022-12-10T15:35:57;1.00;99.90
31369;DHT22;18004;48.416;10.066;2022-12-10T15:38:24;0.90;99.90
31369;DHT22;18004;48.416;10.066;2022-12-10T15:40:50;0.90;99.90
31369;DHT22;18004;48.416;10.066;2022-12-10T15:43:23;0.90;99.90
31369;DHT22;18004;48.416;10.066;2022-12-10T15:45:50;1.00;99.90
31369;DHT22;18004;48.416;10.066;2022-12-10T15:48:16;0.90;99.90
31369;DHT22;18004;48.416;10.066;2022-12-10T15:50:43;0.90;99.90
31369;DHT22;18004;48.416;10.066;2022-12-10T15:53:11;0.90;99.90
31369;DHT22;18004;48.416;10.066;2022-12-10T15:55:38;0.90;99.90
31369;DHT22;18004;48.416;10.066;2022-12-10T15:58:12;0.80;99.90
31369;DHT22;18004;48.416;10.066;2022-12-10T16:00:38;0.80;99.90
31369;DHT22;18004;48.416;10.066;2022-12-10T16:03:11;0.60;99.90
31369;DHT22;18004;48.416;10.066;2022-12-10T16:05:38;0.50;99.90
31369;DHT22;18004;48.416;10.066;2022-12-10T16:08:18;0.40;99.90
31369;DHT22;18004;48.416;10.066;2022-12-10T16:10:45;0.40;99.90
31369;DHT22;18004;48.416;10.066;2022-12-10T16:13:26;0.50;99.90
31369;DHT22;18004;48.416;10.066;2022-12-10T16:15:57;0.40;99.90
31369;DHT22;18004;48.416;10.066;2022-12-10T16:18:24;0.40;99.90
31369;DHT22;18004;48.416;10.066;2022-12-10T16:20:50;0.40;99.90
31369;DHT22;18004;48.416;10.066;2022-12-10T16:23:16;0.40;99.90
31369;DHT22;18004;48.416;10.066;2022-12-10T16:25:43;0.40;99.90
31369;DHT22;18004;48.416;10.066;2022-12-10T16:28:17;0.40;99.90
31369;DHT22;18004;48.416;10.066;2022-12-10T16:30:54;0.50;99.90
31369;DHT22;18004;48.416;10.066;2022-12-10T16:33:23;0.50;99.90
31369;DHT22;18004;48.416;10.066;2022-12-10T16:35:51;0.50;99.90
31369;DHT22;18004;48.416;10.066;2022-12-10T16:38:17;0.50;99.90
31369;DHT22;18004;48.416;10.066;2022-12-10T16:40:43;0.50;99.90
31369;DHT22;18004;48.416;10.066;2022-12-10T16:43:20;0.50;99.90
31369;DHT22;18004;48.416;10.066;2022-12-10T16:45:47;0.50;99.90
31369;DHT22;18004;48.416;10.066;2022-12-10T16:48:14;0.40;99.90
31369;DHT22;18004;48.416;10.066;2022-12-10T16:50:40;0.40;99.90
31369;DHT22;18004;48.416;10.066;2022-12-10T16:53:15;0.40;99.90
31369;DHT22;18004;48.416;10.066;2022-12-10T16:55:41;0.30;99.90
31369;DHT22;18004;48.416;10.066;2022-12-10T16:58:09;0.30;99.90
31369;DHT22;18004;48.416;10.066;2022-12-10T17:00:35;0.30;99.90
31369;DHT22;18004;48.416;10.066;2022-12-10T17:03:02;0.20;99.90
31369;DHT22;18004;48.416;10.066;2022-12-10T17:05:39;0.20;99.90
31369;DHT22;18004;48.416;10.066;2022-12-10T17:08:07;0.20;99.90
31369;DHT22;18004;48.416;10.066;2022-12-10T17:10:33;0.10;99.90
31369;DHT22;18004;48.416;10.066;2022-12-10T17:13:22;0.10;99.90
31369;DHT22;18004;48.416;10.066;2022-12-10T17:15:49;0.20;99.90
31369;DHT22;18004;48.416;10.066;2022-12-10T17:18:17;0.10;99.90
31369;DHT22;18004;48.416;10.066;2022-12-10T17:20:44;0.20;99.90
31369;DHT22;18004;48.416;10.066;2022-12-10T17:23:10;0.10;99.90
31369;DHT22;18004;48.416;10.066;2022-12-10T17:25:36;0.10;99.90
31369;DHT22;18004;48.416;10.066;2022-12-10T17:28:03;0.10;99.90
31369;DHT22;18004;48.416;10.066;2022-12-10T17:30:29;0.10;99.90
31369;DHT22;18004;48.416;10.066;2022-12-10T17:32:54;0.00;99.90
31369;DHT22;18004;48.416;10.066;2022-12-10T17:35:20;0.00;99.90
31369;DHT22;18004;48.416;10.066;2022-12-10T17:37:47;0.00;99.90
31369;DHT22;18004;48.416;10.066;2022-12-10T17:40:18;0.00;99.90
31369;DHT22;18004;48.416;10.066;2022-12-10T17:42:44;0.00;99.90
31369;DHT22;18004;48.416;10.066;2022-12-10T17:45:15;0.00;99.90
31369;DHT22;18004;48.416;10.066;2022-12-10T17:47:42;0.00;99.90
31369;DHT22;18004;48.416;10.066;2022-12-10T17:50:29;0.00;99.90
31369;DHT22;18004;48.416;10.066;2022-12-10T17:52:56;0.00;99.90
31369;DHT22;18004;48.416;10.066;2022-12-10T17:55:26;0.00;99.90
31369;DHT22;18004;48.416;10.066;2022-12-10T17:57:52;0.00;99.90
31369;DHT22;18004;48.416;10.066;2022-12-10T18:00:21;0.00;99.90